Pagrindinis puslapis
METAR-TAF:

METAR-TAF

Oro uostai :

Kangerlussuaq, Grenlandija

platuma: 67-01N, ilguma: 050-42W, Aukštis: 50 m

Dabartinis oras

Ataskaita buvo paskelbta 32 minutes, ne 02:50 UTC
Vėjas 5 kt iš Rytų/Šiaurės Rytų
Temperatūra -21°C
Drėgmė 77%
Slėgis 994 hPa
Matomumas: 9000 m
(silpnas) sniego grūdai

METAR: BGSF 170250Z AUTO 06005KT 9000NDV -SG BKN042/// OVC048/// M21/M24 Q0994

Laikas: 00:22 (03:22 UTC)

Prognozė

Ataskaita buvo paskelbta 5 valandos ir 13 minutes, ne 22:09 UTC
Prognozė galioja nuo 16 metu 22 UTC su 17 metu 01 UTC
Vėjas 5 kt iš Rytų/Šiaurės Rytų
Matomumas 10 km arba daugiau
Mažai debesys ne aukštis 5000 ft
Išsisklaidę debesys ne aukštis 8000 ft
Laikinai
nuo 16 metu 22 UTC su 17 metu 01 UTC
Matomumas: 3000 m
Su prošvaistėmis ne aukštis 2500 ft
sniegas

TAF: BGSF 162209Z 1622/1701 06005KT 9999 FEW050 SCT080 TEMPO 1622/1701 3000 -SN BKN025

Orai ataskaitas ir orų prognozės (METAR, TAF).

turimą stotys yra geltonos ir raudonos taškus žemėlapyje.

Perkelti pele per norėdami pamatyti stoties vardą.

Tada spustelėkite, norėdami matyti oro stebėjimo ir prognozės.

Norėdami pakeisti žemėlapį: spustelėkite ant žalios mygtukų su juodo kryžiaus žemyn,; žalią mygtuką su brūkšneliu, jei norite nutolinti; arba žalių rodyklių gretimoms žemėlapius.


METAR-TAF: